createdAt,value
2019-05-21T00:01:05.578Z,79.50
2019-05-21T00:03:35.013Z,79.60
2019-05-21T00:06:04.407Z,79.70
2019-05-21T00:08:33.863Z,79.90
2019-05-21T00:11:03.234Z,79.90
2019-05-21T00:13:32.625Z,79.90
2019-05-21T00:16:02.013Z,79.80
2019-05-21T00:18:31.401Z,79.90
2019-05-21T00:21:00.783Z,80.00
2019-05-21T00:23:30.170Z,80.10
2019-05-21T00:25:59.622Z,80.20
2019-05-21T00:28:38.917Z,80.20
2019-05-21T00:31:46.004Z,80.20
2019-05-21T00:34:51.738Z,80.20
2019-05-21T00:37:59.092Z,80.30
2019-05-21T00:41:05.068Z,80.20
2019-05-21T00:43:40.341Z,80.30
2019-05-21T00:46:09.723Z,80.40
2019-05-21T00:48:39.093Z,80.60
2019-05-21T00:51:08.486Z,80.80
2019-05-21T00:53:37.928Z,81.00
2019-05-21T00:56:07.379Z,81.00
2019-05-21T00:58:36.767Z,81.10
2019-05-21T01:01:06.139Z,81.30
2019-05-21T01:03:36.595Z,81.30
2019-05-21T01:06:05.957Z,81.30
2019-05-21T01:08:35.347Z,81.40
2019-05-21T01:11:04.744Z,81.50
2019-05-21T01:13:34.520Z,81.50
2019-05-21T01:16:03.830Z,81.30
2019-05-21T01:18:33.202Z,81.50
2019-05-21T01:21:02.593Z,81.60
2019-05-21T01:23:31.987Z,81.70
2019-05-21T01:26:01.377Z,81.90
2019-05-21T01:28:30.831Z,81.90
2019-05-21T01:31:00.206Z,81.90
2019-05-21T01:33:29.591Z,81.80
2019-05-21T01:35:58.981Z,81.80
2019-05-21T01:38:28.341Z,81.80
2019-05-21T01:40:57.736Z,82.10
2019-05-21T01:43:27.127Z,82.10
2019-05-21T01:45:56.494Z,82.20
2019-05-21T01:48:25.973Z,82.40
2019-05-21T01:50:55.363Z,82.40
2019-05-21T01:53:24.790Z,82.50
2019-05-21T01:55:54.172Z,82.60
2019-05-21T01:58:23.933Z,82.60
2019-05-21T02:00:53.280Z,82.50
2019-05-21T02:03:22.673Z,82.60
2019-05-21T02:05:52.335Z,82.90
2019-05-21T02:08:21.702Z,83.10
2019-05-21T02:10:51.115Z,83.10
2019-05-21T02:13:20.575Z,83.20
2019-05-21T02:15:49.953Z,83.30
2019-05-21T02:18:19.339Z,83.30
2019-05-21T02:20:48.785Z,83.50
2019-05-21T02:23:18.263Z,83.50
2019-05-21T02:25:47.635Z,83.50
2019-05-21T02:28:17.027Z,83.50
2019-05-21T02:30:46.428Z,83.70
2019-05-21T02:33:15.803Z,83.80
2019-05-21T02:35:54.339Z,83.70
2019-05-21T02:38:16.181Z,83.60
2019-05-21T02:40:45.562Z,83.70
2019-05-21T02:43:14.928Z,83.80
2019-05-21T02:45:44.328Z,83.80
2019-05-21T02:48:13.701Z,84.00
2019-05-21T02:50:43.087Z,84.20
2019-05-21T02:53:12.463Z,84.20
2019-05-21T02:55:41.860Z,84.20
2019-05-21T02:58:11.214Z,84.40
2019-05-21T03:00:42.246Z,84.50
2019-05-21T03:03:14.278Z,84.50
2019-05-21T03:05:43.622Z,85.20
2019-05-21T03:08:13.585Z,84.30
2019-05-21T03:10:42.973Z,84.30
2019-05-21T03:13:12.382Z,84.40
2019-05-21T03:15:41.762Z,84.50
2019-05-21T03:18:11.144Z,84.70
2019-05-21T03:20:40.533Z,84.80
2019-05-21T03:23:10.273Z,84.90
2019-05-21T03:25:39.575Z,85.10
2019-05-21T03:28:08.967Z,85.30
2019-05-21T03:30:38.362Z,85.40
2019-05-21T03:33:07.758Z,85.40
2019-05-21T03:35:37.116Z,85.40
2019-05-21T03:38:06.514Z,85.60
2019-05-21T03:40:35.908Z,85.50
2019-05-21T03:43:05.295Z,85.50
2019-05-21T03:45:34.754Z,85.30
2019-05-21T03:48:04.162Z,85.20
2019-05-21T03:50:33.539Z,85.20
2019-05-21T03:53:02.959Z,85.20
2019-05-21T03:55:32.360Z,85.30
2019-05-21T03:58:01.748Z,85.40
2019-05-21T04:00:31.135Z,85.40
2019-05-21T04:03:00.593Z,86.10
2019-05-21T04:05:29.959Z,85.40
2019-05-21T04:07:59.345Z,85.60
2019-05-21T04:10:28.815Z,85.60
2019-05-21T04:13:07.695Z,86.50
2019-05-21T04:15:40.062Z,85.60
2019-05-21T04:18:11.092Z,85.60
2019-05-21T04:20:40.479Z,85.70
2019-05-21T04:23:09.865Z,85.60
2019-05-21T04:25:51.729Z,85.70
2019-05-21T04:28:21.094Z,85.70
2019-05-21T04:30:50.486Z,85.80
2019-05-21T04:33:19.854Z,85.90
2019-05-21T04:35:49.249Z,85.30
2019-05-21T04:38:18.606Z,85.70
2019-05-21T04:40:48.068Z,85.60
2019-05-21T04:43:17.460Z,85.60
2019-05-21T04:45:46.822Z,85.70
2019-05-21T04:48:16.223Z,85.70
2019-05-21T04:50:45.610Z,85.80
2019-05-21T04:53:15.000Z,85.70
2019-05-21T04:55:44.391Z,85.70
2019-05-21T04:58:13.753Z,85.80
2019-05-21T05:00:43.153Z,85.90
2019-05-21T05:03:12.544Z,86.00
2019-05-21T05:05:41.953Z,85.90
2019-05-21T05:08:11.332Z,85.90
2019-05-21T05:10:40.701Z,85.90
2019-05-21T05:13:10.088Z,85.80
2019-05-21T05:15:39.511Z,85.90
2019-05-21T05:18:08.895Z,85.90
2019-05-21T05:20:38.793Z,85.90
2019-05-21T05:23:08.122Z,85.60
2019-05-21T05:25:37.540Z,85.30
2019-05-21T05:28:07.005Z,85.00
2019-05-21T05:30:36.510Z,85.50
2019-05-21T05:33:05.908Z,84.30
2019-05-21T05:35:35.336Z,84.20
2019-05-21T05:38:04.731Z,84.10
2019-05-21T05:40:34.098Z,83.70
2019-05-21T05:43:03.487Z,83.30
2019-05-21T05:45:32.872Z,82.80
2019-05-21T05:48:02.372Z,82.30
2019-05-21T05:50:33.516Z,82.20
2019-05-21T05:53:02.929Z,82.00
2019-05-21T05:55:32.603Z,82.10
2019-05-21T05:58:02.015Z,82.10
2019-05-21T06:00:31.410Z,82.10
2019-05-21T06:03:00.871Z,81.90
2019-05-21T06:05:30.238Z,81.60
2019-05-21T06:08:00.503Z,81.40
2019-05-21T06:10:29.427Z,81.20
2019-05-21T06:12:58.709Z,81.30
2019-05-21T06:15:28.103Z,81.30
2019-05-21T06:17:57.491Z,81.30
2019-05-21T06:20:26.889Z,81.40
2019-05-21T06:22:56.281Z,81.10
2019-05-21T06:25:25.654Z,80.80
2019-05-21T06:27:55.022Z,80.80
2019-05-21T06:30:24.415Z,80.80
2019-05-21T06:32:53.806Z,80.60
2019-05-21T06:35:23.200Z,80.30
2019-05-21T06:37:52.631Z,80.30
2019-05-21T06:40:22.585Z,80.30
2019-05-21T06:42:52.241Z,80.20
2019-05-21T06:45:21.628Z,80.30
2019-05-21T06:47:51.017Z,80.00
2019-05-21T06:50:20.394Z,80.00
2019-05-21T06:52:49.850Z,80.30
2019-05-21T06:55:19.272Z,79.90
2019-05-21T06:57:48.631Z,79.60
2019-05-21T07:00:18.054Z,79.50
2019-05-21T07:02:47.426Z,79.50
2019-05-21T07:05:16.818Z,79.80
2019-05-21T07:07:46.218Z,80.40
2019-05-21T07:10:15.576Z,80.00
2019-05-21T07:12:44.974Z,79.80
2019-05-21T07:15:14.387Z,79.90
2019-05-21T07:17:43.927Z,80.10
2019-05-21T07:20:13.541Z,79.90
2019-05-21T07:22:43.008Z,79.80
2019-05-21T07:25:12.439Z,79.50
2019-05-21T07:27:41.831Z,78.90
2019-05-21T07:30:11.214Z,78.80
2019-05-21T07:32:40.684Z,77.70
2019-05-21T07:35:10.149Z,77.00
2019-05-21T07:37:39.604Z,76.90
2019-05-21T07:40:09.377Z,76.80
2019-05-21T07:42:38.779Z,76.50
2019-05-21T07:45:08.798Z,76.20
2019-05-21T07:47:38.194Z,76.20
2019-05-21T07:50:07.579Z,76.00
2019-05-21T07:52:36.963Z,75.60
2019-05-21T07:55:06.342Z,75.10
2019-05-21T07:57:35.779Z,74.40
2019-05-21T08:00:05.885Z,74.10
2019-05-21T08:02:35.344Z,73.50
2019-05-21T08:05:05.699Z,73.50
2019-05-21T08:07:35.587Z,73.00
2019-05-21T08:10:06.952Z,73.10
2019-05-21T08:12:39.317Z,72.70
2019-05-21T08:15:07.331Z,72.20
2019-05-21T08:17:36.759Z,71.90
2019-05-21T08:20:10.009Z,71.50
2019-05-21T08:22:58.478Z,71.60
2019-05-21T08:25:27.915Z,71.20
2019-05-21T08:27:57.442Z,71.00
2019-05-21T08:30:26.831Z,70.50
2019-05-21T08:32:56.679Z,69.50
2019-05-21T08:35:26.058Z,69.60
2019-05-21T08:37:55.436Z,68.20
2019-05-21T08:40:24.842Z,67.80
2019-05-21T08:42:54.218Z,67.70
2019-05-21T08:45:23.595Z,67.80
2019-05-21T08:47:53.005Z,67.60
2019-05-21T08:53:29.614Z,66.10
2019-05-21T08:55:58.989Z,65.80
2019-05-21T08:58:28.338Z,66.00
2019-05-21T09:00:57.708Z,65.40
2019-05-21T09:03:27.166Z,65.50
2019-05-21T09:05:56.614Z,65.90
2019-05-21T09:08:25.998Z,66.00
2019-05-21T09:10:56.028Z,65.30
2019-05-21T09:13:25.573Z,65.50
2019-05-21T09:15:56.570Z,65.50
2019-05-21T09:18:25.933Z,64.60
2019-05-21T09:20:58.090Z,63.80
2019-05-21T09:23:27.467Z,64.30
2019-05-21T09:25:56.842Z,63.50
2019-05-21T09:28:26.228Z,64.30
2019-05-21T09:30:55.575Z,64.30
2019-05-21T09:33:24.950Z,63.10
2019-05-21T09:35:54.430Z,63.20
2019-05-21T09:38:23.821Z,63.10
2019-05-21T09:40:53.197Z,63.40
2019-05-21T09:43:22.617Z,63.30
2019-05-21T09:45:52.273Z,63.60
2019-05-21T09:48:21.585Z,62.60
2019-05-21T09:50:51.028Z,62.00
2019-05-21T09:53:20.427Z,60.90
2019-05-21T09:55:49.758Z,60.60
2019-05-21T09:58:20.776Z,60.10
2019-05-21T10:01:07.377Z,59.90
2019-05-21T10:03:47.433Z,60.10
2019-05-21T10:06:16.802Z,59.70
2019-05-21T10:08:46.189Z,58.60
2019-05-21T10:11:15.569Z,58.70
2019-05-21T10:13:44.918Z,58.90
2019-05-21T10:16:14.286Z,59.40
2019-05-21T10:18:43.693Z,59.40
2019-05-21T10:21:13.049Z,59.40
2019-05-21T10:23:42.426Z,59.20
2019-05-21T10:26:11.794Z,59.60
2019-05-21T10:28:41.162Z,60.00
2019-05-21T10:31:10.538Z,60.60
2019-05-21T10:33:39.915Z,59.40
2019-05-21T10:36:09.298Z,58.60
2019-05-21T10:38:38.669Z,57.90
2019-05-21T10:41:08.022Z,58.40
2019-05-21T10:43:37.398Z,57.90
2019-05-21T10:46:06.856Z,57.50
2019-05-21T10:48:36.230Z,57.30
2019-05-21T10:51:06.668Z,57.10
2019-05-21T10:53:36.040Z,56.70
2019-05-21T10:56:05.421Z,56.60
2019-05-21T10:58:34.883Z,57.00
2019-05-21T11:01:05.898Z,57.40
2019-05-21T11:03:45.934Z,57.80
2019-05-21T11:06:16.777Z,56.70
2019-05-21T11:08:46.159Z,55.90
2019-05-21T11:11:15.569Z,55.80
2019-05-21T11:13:44.987Z,56.00
2019-05-21T11:16:14.409Z,56.20
2019-05-21T11:18:43.817Z,56.90
2019-05-21T11:21:14.261Z,57.50
2019-05-21T11:23:43.678Z,56.50
2019-05-21T11:26:13.059Z,56.30
2019-05-21T11:28:42.449Z,56.50
2019-05-21T11:31:31.780Z,57.10
2019-05-21T11:34:05.737Z,57.30
2019-05-21T11:36:36.197Z,56.90
2019-05-21T11:39:07.802Z,58.00
2019-05-21T11:41:37.258Z,58.10
2019-05-21T11:44:06.604Z,57.40
2019-05-21T11:46:35.982Z,57.00
2019-05-21T11:49:05.374Z,56.80
2019-05-21T11:51:34.714Z,56.70
2019-05-21T11:54:04.111Z,56.40
2019-05-21T11:56:36.164Z,56.60
2019-05-21T11:59:04.578Z,56.50
2019-05-21T12:01:33.942Z,56.10
2019-05-21T12:04:03.315Z,56.90
2019-05-21T12:06:32.671Z,56.90
2019-05-21T12:09:02.045Z,57.10
2019-05-21T12:11:31.601Z,57.60
2019-05-21T12:14:00.980Z,57.80
2019-05-21T12:16:30.357Z,58.00
2019-05-21T12:18:59.750Z,57.00
2019-05-21T12:21:29.096Z,56.70
2019-05-21T12:23:59.566Z,57.40
2019-05-21T12:26:29.052Z,57.30
2019-05-21T12:28:58.503Z,56.90
2019-05-21T12:31:27.981Z,56.40
2019-05-21T12:33:57.431Z,57.10
2019-05-21T12:36:27.106Z,57.50
2019-05-21T12:39:11.624Z,57.90
2019-05-21T12:41:39.888Z,58.10
2019-05-21T12:44:09.342Z,58.10
2019-05-21T12:46:38.826Z,58.30
2019-05-21T12:49:08.213Z,59.60
2019-05-21T12:51:37.668Z,59.40
2019-05-21T12:54:07.030Z,59.90
2019-05-21T12:56:40.451Z,58.30
2019-05-21T12:59:07.402Z,57.80
2019-05-21T13:01:36.754Z,58.00
2019-05-21T13:04:06.143Z,57.80
2019-05-21T13:06:58.396Z,58.30
2019-05-21T13:09:32.477Z,59.00
2019-05-21T13:11:49.545Z,59.20
2019-05-21T13:14:19.175Z,58.60
2019-05-21T13:16:48.679Z,58.10
2019-05-21T13:19:18.077Z,57.80
2019-05-21T13:21:47.465Z,57.80
2019-05-21T13:24:16.911Z,58.40
2019-05-21T13:26:46.338Z,58.60
2019-05-21T13:29:15.651Z,57.20
2019-05-21T13:31:45.026Z,56.20
2019-05-21T13:34:14.398Z,56.50
2019-05-21T13:36:43.773Z,55.60
2019-05-21T13:39:26.419Z,55.50
2019-05-21T13:41:55.798Z,55.00
2019-05-21T13:44:25.173Z,54.70
2019-05-21T13:46:54.554Z,54.20
2019-05-21T13:49:25.001Z,53.70
2019-05-21T13:51:54.358Z,52.90
2019-05-21T13:54:23.806Z,52.80
2019-05-21T13:56:53.347Z,51.50
2019-05-21T13:59:22.776Z,51.70
2019-05-21T14:01:52.179Z,51.80
2019-05-21T14:04:21.636Z,51.50
2019-05-21T14:06:51.007Z,52.20
2019-05-21T14:09:20.382Z,52.70
2019-05-21T14:11:49.729Z,52.80
2019-05-21T14:14:19.110Z,52.90
2019-05-21T14:16:48.495Z,52.70
2019-05-21T14:19:17.871Z,52.40
2019-05-21T14:21:47.260Z,51.30
2019-05-21T14:24:16.613Z,51.40
2019-05-21T14:26:46.002Z,51.70
2019-05-21T14:29:15.372Z,51.20
2019-05-21T14:31:44.744Z,51.10
2019-05-21T14:34:14.122Z,51.10
2019-05-21T14:36:43.474Z,50.90
2019-05-21T14:39:14.515Z,50.80
2019-05-21T14:41:43.974Z,51.50
2019-05-21T14:44:14.294Z,51.90
2019-05-21T14:46:43.693Z,52.10
2019-05-21T14:49:13.073Z,51.80
2019-05-21T14:51:42.445Z,51.60
2019-05-21T14:54:25.508Z,51.60
2019-05-21T14:56:47.257Z,52.30
2019-05-21T14:59:14.969Z,52.50
2019-05-21T15:01:44.349Z,52.90
2019-05-21T15:04:13.783Z,53.40
2019-05-21T15:06:43.218Z,53.90
2019-05-21T15:09:12.598Z,53.90
2019-05-21T15:11:42.018Z,54.10
2019-05-21T15:14:11.398Z,54.10
2019-05-21T15:16:40.788Z,54.20
2019-05-21T15:19:10.181Z,54.70
2019-05-21T15:21:41.197Z,54.90
2019-05-21T15:24:10.902Z,55.10
2019-05-21T15:26:40.427Z,55.00
2019-05-21T15:29:10.273Z,54.80
2019-05-21T15:31:39.669Z,54.40
2019-05-21T15:34:09.156Z,54.40
2019-05-21T15:36:38.552Z,54.30
2019-05-21T15:39:08.453Z,54.80
2019-05-21T15:41:37.913Z,55.30
2019-05-21T15:44:07.360Z,56.20
2019-05-21T15:46:47.656Z,57.50
2019-05-21T15:49:07.734Z,58.00
2019-05-21T15:51:37.116Z,59.30
2019-05-21T15:54:10.127Z,59.20
2019-05-21T15:57:17.809Z,60.20
2019-05-21T16:00:06.213Z,61.10
2019-05-21T16:02:35.902Z,62.90
2019-05-21T16:05:06.529Z,64.40
2019-05-21T16:07:35.943Z,65.60
2019-05-21T16:10:08.519Z,67.00
2019-05-21T16:12:37.978Z,68.50
2019-05-21T16:15:17.534Z,69.70
2019-05-21T16:17:48.808Z,70.50
2019-05-21T16:20:18.226Z,71.00
2019-05-21T16:22:47.666Z,71.30
2019-05-21T16:25:17.053Z,71.50
2019-05-21T16:27:46.501Z,71.60
2019-05-21T16:30:16.354Z,72.00
2019-05-21T16:32:45.738Z,72.60
2019-05-21T16:35:16.275Z,73.00
2019-05-21T16:37:45.723Z,73.50
2019-05-21T16:40:15.228Z,74.00
2019-05-21T16:42:44.626Z,74.80
2019-05-21T16:45:14.045Z,75.50
2019-05-21T16:47:46.513Z,76.30
2019-05-21T16:50:16.397Z,77.20
2019-05-21T16:52:47.129Z,78.00
2019-05-21T16:55:18.145Z,78.50
2019-05-21T16:57:49.941Z,79.30
2019-05-21T17:00:20.638Z,79.90
2019-05-21T17:02:49.326Z,80.40
2019-05-21T17:05:19.287Z,80.90
2019-05-21T17:07:49.550Z,81.20
2019-05-21T17:10:18.999Z,81.60
2019-05-21T17:12:48.803Z,82.60
2019-05-21T17:15:18.262Z,82.90
2019-05-21T17:17:47.631Z,83.50
2019-05-21T17:20:17.021Z,84.00
2019-05-21T17:22:46.757Z,84.40
2019-05-21T17:25:16.921Z,84.70
2019-05-21T17:27:47.028Z,85.20
2019-05-21T17:30:17.349Z,85.40
2019-05-21T17:33:01.949Z,85.50
2019-05-21T17:35:31.441Z,85.60
2019-05-21T17:38:01.131Z,85.80
2019-05-21T17:40:30.930Z,85.90
2019-05-21T17:43:00.947Z,86.30
2019-05-21T17:45:30.794Z,86.60
2019-05-21T17:48:08.355Z,86.80
2019-05-21T17:50:37.919Z,86.80
2019-05-21T17:53:07.372Z,86.60
2019-05-21T17:55:36.818Z,86.40
2019-05-21T17:58:06.131Z,86.50
2019-05-21T18:00:52.360Z,86.60
2019-05-21T18:03:22.102Z,86.30
2019-05-21T18:05:52.762Z,86.10
2019-05-21T18:08:22.216Z,86.80
2019-05-21T18:10:51.988Z,86.90
2019-05-21T18:13:21.720Z,87.10
2019-05-21T18:15:51.487Z,87.10
2019-05-21T18:18:20.986Z,87.90
2019-05-21T18:20:50.804Z,87.10
2019-05-21T18:23:20.912Z,87.30
2019-05-21T18:25:50.804Z,87.30
2019-05-21T18:28:20.355Z,87.10
2019-05-21T18:30:49.862Z,86.80
2019-05-21T18:33:19.507Z,86.70
2019-05-21T18:35:48.983Z,86.50
2019-05-21T18:38:19.358Z,86.60
2019-05-21T18:40:48.856Z,86.30
2019-05-21T18:43:18.300Z,86.70
2019-05-21T18:45:47.756Z,86.50
2019-05-21T18:48:17.138Z,87.00
2019-05-21T18:50:46.494Z,87.10
2019-05-21T18:53:15.966Z,87.30
2019-05-21T18:55:45.720Z,87.30
2019-05-21T18:58:17.125Z,87.30
2019-05-21T19:00:46.176Z,87.50
2019-05-21T19:03:25.445Z,87.60
2019-05-21T19:05:48.230Z,87.70
2019-05-21T19:08:18.456Z,87.70
2019-05-21T19:10:48.734Z,87.50
2019-05-21T19:13:30.946Z,87.80
2019-05-21T19:16:00.662Z,87.80
2019-05-21T19:18:33.163Z,87.80
2019-05-21T19:21:05.249Z,88.00
2019-05-21T19:23:34.682Z,88.40
2019-05-21T19:26:04.134Z,88.60
2019-05-21T19:28:33.560Z,88.60
2019-05-21T19:31:04.117Z,88.70
2019-05-21T19:33:34.315Z,88.90
2019-05-21T19:36:03.675Z,89.00
2019-05-21T19:38:36.977Z,89.10
2019-05-21T19:41:04.510Z,89.30
2019-05-21T19:43:33.937Z,89.50
2019-05-21T19:46:03.382Z,89.60
2019-05-21T19:48:32.837Z,90.00
2019-05-21T19:51:14.792Z,90.00
2019-05-21T19:53:44.175Z,90.10
2019-05-21T19:56:13.530Z,90.30
2019-05-21T19:58:42.951Z,90.30
2019-05-21T20:01:12.384Z,90.30
2019-05-21T20:03:42.130Z,90.30
2019-05-21T20:06:13.207Z,90.30
2019-05-21T20:08:42.933Z,90.40
2019-05-21T20:11:12.383Z,90.40
2019-05-21T20:13:41.832Z,90.40
2019-05-21T20:16:11.726Z,90.50
2019-05-21T20:18:44.359Z,90.60
2019-05-21T20:21:14.205Z,90.60
2019-05-21T20:23:44.099Z,90.70
2019-05-21T20:26:15.788Z,90.70
2019-05-21T20:28:45.574Z,90.80
2019-05-21T20:31:16.986Z,90.90
2019-05-21T20:33:48.457Z,91.00
2019-05-21T20:36:18.585Z,91.10
2019-05-21T20:38:48.043Z,91.20
2019-05-21T20:41:17.856Z,91.20
2019-05-21T20:43:58.630Z,91.20
2019-05-21T20:46:19.346Z,91.30
2019-05-21T20:48:49.150Z,91.40
2019-05-21T20:51:19.239Z,91.50
2019-05-21T20:53:49.682Z,91.50
2019-05-21T20:56:19.233Z,91.50
2019-05-21T20:58:48.621Z,91.60
2019-05-21T21:01:18.249Z,91.70
2019-05-21T21:03:47.936Z,91.80
2019-05-21T21:06:33.912Z,91.80
2019-05-21T21:08:49.023Z,91.90
2019-05-21T21:11:19.030Z,91.90
2019-05-21T21:13:48.543Z,91.80
2019-05-21T21:16:17.909Z,91.80
2019-05-21T21:18:47.723Z,91.80
2019-05-21T21:21:17.553Z,91.80
2019-05-21T21:23:48.697Z,91.80
2019-05-21T21:26:19.019Z,91.80
2019-05-21T21:28:48.484Z,91.70
2019-05-21T21:31:18.580Z,91.70
2019-05-21T21:33:47.977Z,91.70
2019-05-21T21:36:17.371Z,91.80
2019-05-21T21:38:46.730Z,91.80
2019-05-21T21:41:16.115Z,91.80
2019-05-21T21:43:45.514Z,91.80
2019-05-21T21:46:14.887Z,91.80
2019-05-21T21:48:45.582Z,91.90
2019-05-21T21:51:16.009Z,91.90
2019-05-21T21:53:45.722Z,91.90
2019-05-21T21:56:15.064Z,91.90
2019-05-21T21:58:44.730Z,91.90
2019-05-21T22:01:37.153Z,91.80
2019-05-21T22:04:07.060Z,91.90
2019-05-21T22:06:36.585Z,91.90
2019-05-21T22:09:07.919Z,91.80
2019-05-21T22:11:37.358Z,91.80
2019-05-21T22:14:07.384Z,91.90
2019-05-21T22:16:37.477Z,91.90
2019-05-21T22:19:08.437Z,92.00
2019-05-21T22:21:38.149Z,92.00
2019-05-21T22:24:08.477Z,92.00
2019-05-21T22:26:38.051Z,92.00
2019-05-21T22:29:07.498Z,92.00
2019-05-21T22:31:37.218Z,92.10
2019-05-21T22:34:06.613Z,92.10
2019-05-21T22:36:35.997Z,92.10
2019-05-21T22:39:08.529Z,92.10
2019-05-21T22:41:37.911Z,92.10
2019-05-21T22:44:07.673Z,92.10
2019-05-21T22:46:37.958Z,92.10
2019-05-21T22:49:07.357Z,92.10
2019-05-21T22:51:36.785Z,92.10
2019-05-21T22:54:06.166Z,92.20
2019-05-21T22:56:35.928Z,92.10
2019-05-21T22:59:24.660Z,92.10
2019-05-21T23:01:55.701Z,92.10
2019-05-21T23:04:25.152Z,92.20
2019-05-21T23:06:56.143Z,92.10
2019-05-21T23:09:25.591Z,92.10
2019-05-21T23:11:54.994Z,92.10
2019-05-21T23:14:24.385Z,92.10
2019-05-21T23:16:54.305Z,92.10
2019-05-21T23:19:25.362Z,92.10
2019-05-21T23:21:56.738Z,92.20
2019-05-21T23:24:27.571Z,92.20
2019-05-21T23:26:57.207Z,92.10
2019-05-21T23:29:26.662Z,92.20
2019-05-21T23:31:56.044Z,92.20
2019-05-21T23:34:25.972Z,92.20
2019-05-21T23:36:56.237Z,92.20
2019-05-21T23:39:27.623Z,92.30
2019-05-21T23:41:56.980Z,92.30
2019-05-21T23:44:26.531Z,92.30
2019-05-21T23:46:55.915Z,92.30
2019-05-21T23:49:25.281Z,92.40
2019-05-21T23:51:54.673Z,92.40
2019-05-21T23:54:24.051Z,92.50
2019-05-21T23:56:54.288Z,92.50
2019-05-21T23:59:24.147Z,92.50
